Time;durP1;ratioP1;P1;durP2;ratioP2;P2;SDS_P1;SDS_P2;PMS_P1;PMS_P2;Temp;Humidity;BMP_temperature;BMP_pressure;BME280_temperature;BME280_humidity;BME280_pressure;Samples;Min_cycle;Max_cycle;Signal;HPM_P1;HPM_P2
2022/10/02 00:01:16;;;;;;;2.90;1.90;;;;;;;9.90;100.00;98146.24;221805;1267;22586;-72
2022/10/02 00:06:34;;;;;;;2.50;1.90;;;;;;;9.92;100.00;98161.08;221755;1267;22544;-73
2022/10/02 00:11:52;;;;;;;2.50;1.80;;;;;;;9.95;100.00;98169.57;221659;1267;22687;-73
2022/10/02 00:16:59;;;;;;;3.60;2.10;;;;;;;9.97;100.00;98181.33;221654;1267;22703;-73
2022/10/02 00:22:29;;;;;;;3.40;2.30;;;;;;;9.97;100.00;98186.48;221732;1267;25587;-72
2022/10/02 00:28:40;;;;;;;2.20;1.70;;;;;;;10.00;100.00;98191.27;221644;1267;22586;-73
2022/10/02 00:34:20;;;;;;;3.20;2.00;;;;;;;10.03;100.00;98189.39;221721;1267;24257;-73
2022/10/02 00:39:57;;;;;;;2.00;1.80;;;;;;;10.04;100.00;98191.05;221728;1267;22552;-73
2022/10/02 00:45:45;;;;;;;3.30;1.80;;;;;;;10.05;100.00;98192.33;221739;1267;24218;-72
2022/10/02 00:51:34;;;;;;;3.20;2.00;;;;;;;10.03;100.00;98199.44;221643;1267;24259;-72
2022/10/02 00:56:59;;;;;;;2.90;1.70;;;;;;;10.04;100.00;98196.85;221835;1267;25667;-74
2022/10/02 01:02:09;;;;;;;2.50;1.80;;;;;;;9.99;100.00;98204.86;221500;1267;23185;-73
2022/10/02 01:07:19;;;;;;;2.50;1.80;;;;;;;9.95;100.00;98207.09;221806;1267;25375;-72
2022/10/02 01:12:55;;;;;;;2.00;1.70;;;;;;;9.92;100.00;98218.29;221677;1267;22742;-72
2022/10/02 01:18:01;;;;;;;1.80;1.50;;;;;;;9.91;100.00;98220.77;221452;1267;23821;-72
2022/10/02 01:23:31;;;;;;;1.70;1.40;;;;;;;9.92;100.00;98227.59;221616;1267;23411;-72
2022/10/02 01:28:53;;;;;;;2.30;1.90;;;;;;;9.95;100.00;98236.04;221529;1267;24323;-72
2022/10/02 01:33:56;;;;;;;1.90;1.50;;;;;;;9.97;100.00;98241.45;221701;1267;24256;-72
2022/10/02 01:39:04;;;;;;;2.10;1.70;;;;;;;10.01;100.00;98245.99;221626;1267;24375;-72
2022/10/02 01:44:11;;;;;;;4.40;1.80;;;;;;;10.04;100.00;98254.43;219169;1267;3479877;-73
2022/10/02 01:50:09;;;;;;;2.90;1.80;;;;;;;10.04;100.00;98262.19;221779;1267;22695;-72
2022/10/02 01:56:17;;;;;;;1.70;1.50;;;;;;;10.03;100.00;98273.13;221208;1270;23078;-72
2022/10/02 02:02:16;;;;;;;3.10;2.00;;;;;;;10.04;100.00;98280.91;221749;1267;22554;-71
2022/10/02 02:07:33;;;;;;;2.20;1.80;;;;;;;10.07;100.00;98284.42;221875;1267;22577;-72
2022/10/02 02:13:22;;;;;;;;;;;;;;;;;;;;;
2022/10/02 02:18:59;;;;;;;2.50;2.10;;;;;;;10.09;100.00;98299.84;221528;1267;22580;-73
2022/10/02 02:24:09;;;;;;;2.40;2.10;;;;;;;10.12;100.00;98300.27;221618;1267;24333;-72
2022/10/02 02:29:14;;;;;;;;;;;;;;;10.16;100.00;98301.37;222059;1267;22573;-71
2022/10/02 02:35:13;;;;;;;2.50;2.30;;;;;;;10.19;100.00;98305.27;221912;1267;24368;-72
2022/10/02 02:40:31;;;;;;;3.10;2.40;;;;;;;10.19;100.00;98308.73;221430;1267;23259;-70
2022/10/02 02:45:53;;;;;;;2.30;2.00;;;;;;;10.21;100.00;98311.98;221819;1267;24562;-72
2022/10/02 02:51:32;;;;;;;2.50;2.10;;;;;;;10.20;100.00;98310.92;221501;1267;22538;-72
2022/10/02 02:56:35;;;;;;;2.40;2.20;;;;;;;10.18;100.00;98315.58;221653;1267;25304;-72
2022/10/02 03:01:44;;;;;;;3.00;2.40;;;;;;;10.16;100.00;98320.33;221796;1267;23126;-72
2022/10/02 03:07:22;;;;;;;4.60;2.90;;;;;;;10.17;100.00;98326.14;221643;1267;22547;-71
2022/10/02 03:13:02;;;;;;;3.80;2.20;;;;;;;10.20;100.00;98334.32;221658;1267;24279;-72
2022/10/02 03:18:48;;;;;;;3.50;2.40;;;;;;;10.23;100.00;98340.38;221975;1267;23948;-72
2022/10/02 03:24:26;;;;;;;2.50;2.20;;;;;;;10.25;100.00;98343.17;221890;1267;24368;-71
2022/10/02 03:30:25;;;;;;;;;;;;;;;;;;;;;
2022/10/02 03:35:49;;;;;;;2.70;2.30;;;;;;;10.28;100.00;98344.08;221626;1268;25321;-71
2022/10/02 03:41:00;;;;;;;2.30;2.10;;;;;;;10.31;100.00;98352.44;221772;1267;25419;-72
2022/10/02 03:46:02;;;;;;;4.20;2.30;;;;;;;10.34;100.00;98355.30;221650;1267;23077;-70
2022/10/02 03:51:06;;;;;;;2.40;2.10;;;;;;;10.37;100.00;98361.71;221905;1267;25387;-71
2022/10/02 03:56:43;;;;;;;2.40;2.20;;;;;;;10.42;100.00;98372.65;221822;1267;22633;-71
2022/10/02 04:01:53;;;;;;;3.10;2.10;;;;;;;10.45;100.00;98373.55;221969;1267;22638;-71
2022/10/02 04:07:06;;;;;;;3.30;2.30;;;;;;;10.49;100.00;98376.05;221732;1267;22543;-71
2022/10/02 04:12:39;;;;;;;2.70;2.10;;;;;;;10.55;100.00;98391.43;221591;1267;22637;-72
2022/10/02 04:18:14;;;;;;;2.30;2.10;;;;;;;10.57;99.87;98392.40;221763;1267;22665;-73
2022/10/02 04:23:26;;;;;;;3.30;2.10;;;;;;;10.58;99.83;98399.05;221701;1267;22603;-72
2022/10/02 04:29:11;;;;;;;2.50;1.90;;;;;;;10.57;99.40;98401.98;221824;1267;22572;-72
2022/10/02 04:34:18;;;;;;;1.70;1.60;;;;;;;10.54;99.08;98411.91;221916;1267;25429;-71
2022/10/02 04:39:44;;;;;;;2.80;2.20;;;;;;;10.46;98.76;98419.87;220681;1273;23367;-72
2022/10/02 04:46:23;;;;;;;2.30;1.90;;;;;;;10.36;98.59;98423.90;220473;1274;25638;-71
2022/10/02 04:52:14;;;;;;;3.60;1.60;;;;;;;10.28;98.64;98434.14;220386;1274;22538;-71
2022/10/02 04:57:51;;;;;;;2.20;1.60;;;;;;;10.28;98.78;98437.81;221006;1270;22713;-73
2022/10/02 05:03:42;;;;;;;2.10;1.80;;;;;;;10.33;98.82;98445.78;221417;1270;25412;-72
2022/10/02 05:09:40;;;;;;;1.70;1.50;;;;;;;10.39;98.77;98453.04;221655;1267;22550;-72
2022/10/02 05:15:30;;;;;;;1.60;1.50;;;;;;;10.44;98.56;98454.19;221743;1267;24238;-71
2022/10/02 05:21:16;;;;;;;2.10;1.60;;;;;;;10.46;98.59;98457.52;221889;1267;25363;-72
2022/10/02 05:26:43;;;;;;;4.90;2.40;;;;;;;10.51;98.51;98461.52;221814;1267;24302;-73
2022/10/02 05:32:41;;;;;;;;;;;;;;;;;;;;;
2022/10/02 05:38:33;;;;;;;;;;;;;;;;;;;;;
2022/10/02 05:44:13;;;;;;;3.90;2.00;;;;;;;10.56;98.31;98475.90;221740;1267;24262;-72
2022/10/02 05:49:21;;;;;;;3.20;2.10;;;;;;;10.59;98.12;98478.09;221868;1267;25403;-71
2022/10/02 06:00:28;;;;;;;3.40;1.70;;;;;;;10.70;98.13;98489.02;221900;1267;26526;-71
2022/10/02 06:06:15;;;;;;;4.50;1.70;;;;;;;10.88;98.28;98498.88;221895;1267;23957;-71
2022/10/02 06:12:12;;;;;;;2.60;1.50;;;;;;;11.05;97.98;98504.52;221799;1267;23872;-73
2022/10/02 06:17:26;;;;;;;3.20;1.00;;;;;;;11.16;97.54;98511.48;221701;1267;22532;-72
2022/10/02 06:23:00;;;;;;;1.70;1.20;;;;;;;11.28;97.42;98514.98;221798;1267;22601;-72
2022/10/02 06:28:22;;;;;;;1.90;1.30;;;;;;;11.40;96.96;98518.71;221778;1267;22591;-73
2022/10/02 06:33:56;;;;;;;2.90;1.50;;;;;;;11.52;96.04;98523.95;221501;1267;24221;-72
2022/10/02 06:39:33;;;;;;;3.00;1.70;;;;;;;11.59;95.69;98531.69;221534;1267;23069;-72
2022/10/02 06:45:08;;;;;;;4.80;1.90;;;;;;;11.58;94.98;98538.27;221595;1267;23977;-71
2022/10/02 06:50:47;;;;;;;3.10;1.80;;;;;;;11.55;94.95;98543.26;221711;1268;25967;-72
2022/10/02 06:56:04;;;;;;;3.70;1.80;;;;;;;11.63;95.08;98549.96;221511;1267;22546;-71
2022/10/02 07:02:01;;;;;;;2.20;1.80;;;;;;;11.86;94.84;98547.83;221565;1268;24382;-71
2022/10/02 07:07:34;;;;;;;1.80;1.40;;;;;;;12.09;94.30;98552.27;221643;1267;25446;-72
2022/10/02 07:12:39;;;;;;;3.30;1.50;;;;;;;12.18;93.69;98550.73;221651;1267;22694;-70
2022/10/02 07:18:58;;;;;;;2.10;1.20;;;;;;;12.36;93.76;98556.15;220973;1271;22528;-70
2022/10/02 07:24:12;;;;;;;1.40;1.00;;;;;;;12.57;93.18;98562.59;220898;1273;22695;-72
2022/10/02 07:29:51;;;;;;;4.00;1.20;;;;;;;12.85;92.90;98562.17;221134;1273;25213;-72
2022/10/02 07:35:23;;;;;;;4.00;1.00;;;;;;;13.10;91.89;98564.13;221097;1271;25350;-71
2022/10/02 07:41:00;;;;;;;1.20;0.90;;;;;;;13.16;90.54;98571.30;221361;1267;23301;-72
2022/10/02 07:46:15;;;;;;;1.80;0.90;;;;;;;13.34;90.10;98574.38;221552;1267;22528;-71
2022/10/02 07:51:47;;;;;;;3.00;1.00;;;;;;;13.46;89.01;98575.73;221384;1267;24198;-72
2022/10/02 07:57:25;;;;;;;;;;;;;;;;;;;;;
2022/10/02 08:03:43;;;;;;;2.00;1.50;;;;;;;13.79;87.27;98578.58;221522;1267;22740;-72
2022/10/02 08:09:26;;;;;;;1.00;0.90;;;;;;;13.86;85.70;98571.30;221599;1267;25379;-71
2022/10/02 08:14:58;;;;;;;1.20;1.10;;;;;;;13.94;85.89;98572.89;221585;1267;25296;-71
2022/10/02 08:20:16;;;;;;;2.50;1.00;;;;;;;14.00;85.33;98567.14;221621;1267;22556;-72
2022/10/02 08:25:29;;;;;;;2.30;0.90;;;;;;;14.17;84.45;98558.91;221723;1267;22536;-73
2022/10/02 08:30:55;;;;;;;1.40;0.80;;;;;;;14.22;84.08;98556.27;221769;1267;24370;-71
2022/10/02 08:36:17;;;;;;;4.00;1.00;;;;;;;14.13;83.04;98551.92;221687;1267;24425;-72
2022/10/02 08:41:57;;;;;;;4.10;0.90;;;;;;;14.15;83.57;98555.66;221785;1267;22717;-72
2022/10/02 08:47:09;;;;;;;4.60;0.80;;;;;;;14.29;83.63;98556.65;221824;1267;22544;-71
2022/10/02 08:52:15;;;;;;;1.70;0.90;;;;;;;14.45;83.64;98544.61;221819;1267;22575;-74
2022/10/02 08:57:46;;;;;;;4.20;1.10;;;;;;;14.65;82.25;98547.73;221897;1267;25305;-72
2022/10/02 09:03:30;;;;;;;2.40;0.80;;;;;;;14.69;81.51;98540.45;221907;1269;24215;-71
2022/10/02 09:09:05;;;;;;;6.30;1.00;;;;;;;14.67;80.79;98541.75;221483;1267;22538;-71
2022/10/02 09:14:47;;;;;;;5.30;0.80;;;;;;;14.95;81.44;98524.95;221865;1267;24293;-73
2022/10/02 09:20:14;;;;;;;2.30;0.90;;;;;;;15.26;80.99;98521.23;221627;1267;22603;-72
2022/10/02 09:25:31;;;;;;;2.00;0.80;;;;;;;15.47;79.56;98524.73;221933;1266;24288;-73
2022/10/02 09:31:08;;;;;;;3.60;0.80;;;;;;;15.56;78.05;98519.54;221858;1267;24214;-72
2022/10/02 09:36:49;;;;;;;;;;;;;;;;;;;;;
2022/10/02 09:42:28;;;;;;;1.10;0.70;;;;;;;15.58;77.41;98510.37;221900;1267;22548;-72
2022/10/02 09:47:42;;;;;;;2.40;0.60;;;;;;;15.77;77.16;98509.93;221808;1267;22711;-73
2022/10/02 09:53:07;;;;;;;2.30;0.60;;;;;;;15.97;75.51;98516.53;221602;1267;22535;-72
2022/10/02 09:58:31;;;;;;;2.90;0.70;;;;;;;16.06;73.51;98515.59;221409;1267;24254;-73
2022/10/02 10:03:48;;;;;;;2.20;1.00;;;;;;;16.26;74.14;98515.55;221672;1267;24263;-73
2022/10/02 10:09:33;;;;;;;2.70;0.90;;;;;;;16.25;73.06;98512.88;221601;1267;24015;-70
2022/10/02 10:15:31;;;;;;;2.30;0.90;;;;;;;16.09;72.50;98507.32;221564;1267;22574;-72
2022/10/02 10:21:30;;;;;;;;;;;;;;;;;;;;;
2022/10/02 10:27:29;;;;;;;2.30;1.00;;;;;;;16.00;72.87;98486.29;220604;1273;22643;-73
2022/10/02 10:32:49;;;;;;;2.10;1.20;;;;;;;16.14;73.24;98490.19;221846;1268;22593;-73
2022/10/02 10:38:33;;;;;;;3.30;1.20;;;;;;;16.19;73.24;98494.60;221529;1267;26532;-73
2022/10/02 10:44:24;;;;;;;2.00;1.00;;;;;;;16.30;72.94;98487.80;221581;1270;25403;-72
2022/10/02 10:50:03;;;;;;;3.30;0.90;;;;;;;16.41;72.14;98481.76;221769;1268;23519;-72
2022/10/02 10:55:18;;;;;;;3.90;1.30;;;;;;;16.41;72.25;98481.70;221515;1271;24414;-72
2022/10/02 11:00:25;;;;;;;2.70;1.10;;;;;;;16.40;72.05;98482.30;221649;1270;22709;-74
2022/10/02 11:06:15;;;;;;;1.80;1.00;;;;;;;16.32;71.47;98476.23;221614;1267;22529;-72
2022/10/02 11:12:12;;;;;;;4.90;3.10;;;;;;;16.34;71.40;98476.45;221973;1269;25359;-73
2022/10/02 11:17:34;;;;;;;4.40;1.00;;;;;;;16.44;71.85;98479.26;221645;1267;22955;-72
2022/10/02 11:23:11;;;;;;;1.30;1.20;;;;;;;16.51;71.66;98475.17;221736;1267;22627;-71
2022/10/02 11:28:46;;;;;;;2.20;0.80;;;;;;;16.51;70.93;98476.45;221822;1267;24399;-74
2022/10/02 11:34:38;;;;;;;2.60;0.80;;;;;;;16.58;71.06;98476.23;221821;1267;22706;-71
2022/10/02 11:40:15;;;;;;;1.80;0.80;;;;;;;16.65;70.01;98471.06;221731;1267;24429;-70
2022/10/02 11:45:46;;;;;;;2.90;1.20;;;;;;;16.74;70.36;98466.16;221964;1268;22589;-72
2022/10/02 11:51:26;;;;;;;1.20;0.70;;;;;;;16.90;69.27;98454.73;221771;1270;22659;-73
2022/10/02 11:57:00;;;;;;;1.30;0.90;;;;;;;17.03;68.39;98451.73;221760;1267;22726;-72
2022/10/02 12:02:25;;;;;;;2.10;1.00;;;;;;;17.14;67.67;98450.85;221801;1268;22547;-71
2022/10/02 12:08:40;;;;;;;;;;;;;;;;;;;;;
2022/10/02 12:13:51;;;;;;;10.40;7.00;;;;;;;17.18;67.73;98430.70;220783;1275;22559;-72
2022/10/02 12:19:32;;;;;;;2.00;0.90;;;;;;;17.23;66.75;98430.77;221593;1270;25303;-73
2022/10/02 12:30:50;;;;;;;4.10;1.40;;;;;;;17.13;65.74;98409.60;220787;1272;23961;-72
2022/10/02 12:36:37;;;;;;;3.30;1.80;;;;;;;17.03;65.29;98399.17;221423;1271;22556;-72
2022/10/02 12:42:01;;;;;;;2.40;1.10;;;;;;;17.15;66.04;98394.18;220919;1271;22739;-73
2022/10/02 12:47:52;;;;;;;5.10;0.90;;;;;;;17.25;62.65;98392.86;221309;1269;22712;-72
2022/10/02 12:53:35;;;;;;;1.10;0.70;;;;;;;17.53;64.32;98395.27;221532;1268;24257;-73
2022/10/02 12:58:56;;;;;;;3.70;2.00;;;;;;;17.69;62.78;98394.96;221479;1268;25365;-72
2022/10/02 13:04:26;;;;;;;8.70;4.90;;;;;;;17.72;60.05;98383.67;221884;1268;25251;-72
2022/10/02 13:09:58;;;;;;;5.00;2.00;;;;;;;17.86;60.75;98374.50;221763;1268;23829;-70
2022/10/02 13:15:08;;;;;;;2.20;0.70;;;;;;;17.96;60.95;98371.86;221635;1267;22662;-73
2022/10/02 13:20:38;;;;;;;1.00;0.60;;;;;;;18.02;60.01;98367.97;221811;1267;22581;-71
2022/10/02 13:26:25;;;;;;;3.70;1.40;;;;;;;18.01;58.29;98361.09;221794;1268;22879;-71
2022/10/02 13:31:37;;;;;;;4.70;0.90;;;;;;;17.94;56.31;98356.16;221666;1268;24226;-71
2022/10/02 13:37:03;;;;;;;8.30;5.10;;;;;;;17.79;56.09;98355.15;221392;1268;22887;-71
2022/10/02 13:42:43;;;;;;;3.30;1.60;;;;;;;17.86;58.01;98341.45;221581;1268;22563;-72
2022/10/02 13:48:04;;;;;;;1.10;0.90;;;;;;;17.78;57.40;98340.62;221310;1268;249948;-71
2022/10/02 13:54:22;;;;;;;1.00;0.80;;;;;;;17.59;57.27;98338.98;221739;1268;22570;-72
2022/10/02 13:59:29;;;;;;;2.60;1.00;;;;;;;17.64;57.84;98336.70;221614;1269;23115;-70
2022/10/02 14:05:05;;;;;;;2.40;0.70;;;;;;;17.74;57.34;98328.92;221624;1268;22532;-70
2022/10/02 14:10:40;;;;;;;2.30;0.90;;;;;;;17.89;56.70;98317.08;221438;1268;23058;-73
2022/10/02 14:16:22;;;;;;;1.60;0.60;;;;;;;17.89;56.68;98314.09;221898;1270;22553;-70
2022/10/02 14:21:51;;;;;;;1.80;0.70;;;;;;;17.61;56.76;98310.01;221865;1268;26514;-71
2022/10/02 14:27:19;;;;;;;4.70;0.80;;;;;;;17.45;57.70;98310.75;221878;1268;22625;-71
2022/10/02 14:33:15;;;;;;;2.40;1.00;;;;;;;17.34;58.72;98311.52;221807;1269;25245;-71
2022/10/02 14:39:17;;;;;;;5.20;1.10;;;;;;;17.21;58.09;98313.62;221665;1267;22750;-72
2022/10/02 14:45:02;;;;;;;2.00;1.10;;;;;;;17.09;58.75;98315.53;221180;1268;22589;-71
2022/10/02 14:50:34;;;;;;;1.40;0.90;;;;;;;16.97;58.74;98315.73;221679;1267;25307;-70
2022/10/02 14:56:08;;;;;;;5.80;2.90;;;;;;;16.81;59.38;98329.53;221652;1267;22757;-71
2022/10/02 15:01:21;;;;;;;1.80;1.10;;;;;;;16.60;60.78;98326.80;221662;1267;22544;-72
2022/10/02 15:06:45;;;;;;;2.50;1.20;;;;;;;16.36;61.63;98327.30;221867;1267;24531;-71
2022/10/02 15:12:06;;;;;;;2.90;1.20;;;;;;;16.15;62.07;98324.23;221969;1267;25335;-71
2022/10/02 15:23:05;;;;;;;4.40;1.40;;;;;;;15.81;63.39;98317.08;221731;1267;22555;-72
2022/10/02 15:28:36;;;;;;;3.20;1.10;;;;;;;15.61;63.49;98328.50;221510;1268;23179;-71
2022/10/02 15:34:02;;;;;;;1.40;0.90;;;;;;;15.13;64.70;98323.15;221825;1267;25362;-71
2022/10/02 15:39:31;;;;;;;3.80;1.00;;;;;;;14.68;66.80;98320.17;221643;1267;22560;-71
2022/10/02 15:44:43;;;;;;;2.70;1.00;;;;;;;14.27;68.15;98323.64;222012;1267;22633;-70
2022/10/02 15:50:22;;;;;;;2.50;0.90;;;;;;;13.96;69.43;98320.91;221734;1267;24488;-72
2022/10/02 15:55:37;;;;;;;2.80;1.10;;;;;;;13.69;70.91;98326.39;221839;1267;23308;-70
2022/10/02 16:01:28;;;;;;;1.30;1.00;;;;;;;13.47;71.90;98326.59;222122;1267;24106;-71
2022/10/02 16:06:52;;;;;;;;;;;;;;;13.28;72.87;98322.48;222008;1268;26121;-72
2022/10/02 16:12:21;;;;;;;4.00;1.00;;;;;;;13.14;73.75;98320.44;221788;1267;24316;-71
2022/10/02 16:17:51;;;;;;;2.00;0.80;;;;;;;13.03;74.09;98316.90;221780;1267;26531;-70
2022/10/02 16:23:35;;;;;;;2.80;1.10;;;;;;;12.93;74.87;98320.16;221546;1268;25385;-73
2022/10/02 16:29:39;;;;;;;;;;;;;;;;;;;;;
2022/10/02 16:35:10;;;;;;;2.10;1.10;;;;;;;12.75;75.92;98309.98;221677;1267;22478;-71
2022/10/02 16:40:43;;;;;;;1.50;0.90;;;;;;;12.70;76.40;98317.25;221505;1267;23062;-71
2022/10/02 16:46:07;;;;;;;2.70;1.00;;;;;;;12.61;76.92;98318.84;221830;1268;22692;-71
2022/10/02 16:52:00;;;;;;;2.80;1.50;;;;;;;12.55;77.22;98313.27;221826;1267;22540;-71
2022/10/02 16:57:53;;;;;;;2.70;1.70;;;;;;;12.50;77.76;98309.14;221366;1268;22685;-71
2022/10/02 17:03:21;;;;;;;2.00;1.40;;;;;;;12.48;77.89;98303.45;221961;1268;25305;-71
2022/10/02 17:09:11;;;;;;;5.10;2.20;;;;;;;12.47;78.17;98297.66;221796;1268;23229;-72
2022/10/02 17:14:41;;;;;;;5.10;1.70;;;;;;;12.48;78.35;98300.77;221535;1267;22531;-71
2022/10/02 17:20:39;;;;;;;7.10;3.90;;;;;;;12.46;78.65;98303.56;221941;1268;22574;-70
2022/10/02 17:26:15;;;;;;;8.90;6.00;;;;;;;12.41;79.34;98300.48;221700;1267;22580;-71
2022/10/02 17:31:45;;;;;;;6.30;4.50;;;;;;;12.31;80.21;98303.96;221630;1267;22538;-71
2022/10/02 17:37:16;;;;;;;7.20;3.80;;;;;;;12.21;80.75;98308.39;221823;1267;22707;-71
2022/10/02 17:42:24;;;;;;;5.20;3.50;;;;;;;12.16;80.92;98313.52;221785;1267;25366;-70
2022/10/02 17:48:04;;;;;;;9.10;4.80;;;;;;;12.11;81.12;98315.04;221634;1268;22702;-70
2022/10/02 17:59:09;;;;;;;17.60;6.50;;;;;;;12.01;81.69;98360.50;221691;1267;22650;-75
2022/10/02 18:04:30;;;;;;;5.60;2.70;;;;;;;11.79;82.60;98391.73;221654;1267;23047;-78
2022/10/02 18:09:38;;;;;;;7.40;2.90;;;;;;;11.34;83.24;98382.39;221778;1267;27291;-77
2022/10/02 18:15:18;;;;;;;4.00;2.10;;;;;;;11.00;84.01;98381.30;221796;1267;25248;-78
2022/10/02 18:20:28;;;;;;;4.10;1.30;;;;;;;10.68;84.23;98384.27;221602;1267;24308;-80
2022/10/02 18:26:04;;;;;;;2.00;1.20;;;;;;;10.39;84.94;98379.39;221810;1267;22571;-80
2022/10/02 18:31:58;;;;;;;1.30;1.00;;;;;;;10.18;86.26;98373.65;221794;1267;25393;-81
2022/10/02 18:37:31;;;;;;;2.50;1.30;;;;;;;10.00;87.04;98373.55;222289;1267;23935;-81
2022/10/02 18:42:56;;;;;;;2.30;1.20;;;;;;;9.88;87.82;98368.44;221842;1267;22693;-80
2022/10/02 18:48:01;;;;;;;3.20;1.30;;;;;;;9.79;88.63;98373.66;221886;1268;25321;-79
2022/10/02 18:54:01;;;;;;;2.80;1.20;;;;;;;9.74;89.97;98380.05;221838;1267;22600;-80
2022/10/02 19:00:09;;;;;;;;;;;;;;;;;;;;;
2022/10/02 19:05:57;;;;;;;5.30;1.40;;;;;;;9.67;91.05;98393.76;221872;1267;22679;-79
2022/10/02 19:11:48;;;;;;;2.10;1.10;;;;;;;9.65;91.32;98400.05;221759;1267;23050;-78
2022/10/02 19:17:14;;;;;;;2.20;1.50;;;;;;;9.63;92.01;98389.82;221657;1268;24331;-79
2022/10/02 19:22:33;;;;;;;2.10;1.80;;;;;;;9.65;92.45;98392.02;221819;1267;22559;-78
2022/10/02 19:28:16;;;;;;;3.50;1.30;;;;;;;9.66;92.95;98392.16;221599;1267;22567;-78
2022/10/02 19:33:41;;;;;;;3.70;1.60;;;;;;;9.65;92.99;98398.55;221671;1267;22554;-79
2022/10/02 19:38:48;;;;;;;2.40;1.60;;;;;;;9.57;93.27;98402.67;221644;1267;23842;-77
2022/10/02 19:44:05;;;;;;;3.40;1.40;;;;;;;9.46;93.40;98398.23;221842;1267;24345;-77
2022/10/02 19:49:37;;;;;;;3.50;1.40;;;;;;;9.35;93.48;98405.23;221702;1267;22547;-79
2022/10/02 19:54:39;;;;;;;3.40;1.40;;;;;;;9.23;93.87;98408.98;222052;1267;22698;-77
2022/10/02 19:59:48;;;;;;;2.70;1.20;;;;;;;9.13;94.20;98405.82;221562;1267;22658;-77
2022/10/02 20:04:56;;;;;;;3.00;1.60;;;;;;;9.05;94.33;98409.86;221881;1267;22528;-77
2022/10/02 20:10:29;;;;;;;2.10;1.20;;;;;;;8.97;94.74;98417.23;221502;1268;24235;-77
2022/10/02 20:21:37;;;;;;;4.40;1.70;;;;;;;8.95;96.67;98430.40;221789;1267;23025;-76
2022/10/02 20:26:45;;;;;;;3.70;1.70;;;;;;;8.99;96.64;98428.42;221776;1267;22538;-78
2022/10/02 20:31:55;;;;;;;2.90;1.60;;;;;;;9.06;96.70;98431.39;221535;1268;22556;-77
2022/10/02 20:37:05;;;;;;;3.40;1.60;;;;;;;9.14;96.76;98432.84;221699;1268;22531;-76
2022/10/02 20:42:37;;;;;;;5.00;1.70;;;;;;;9.22;96.91;98434.88;221716;1267;24312;-78
2022/10/02 20:47:48;;;;;;;4.10;2.00;;;;;;;9.25;96.72;98431.79;221719;1268;24201;-77
2022/10/02 20:53:57;;;;;;;3.60;1.80;;;;;;;9.22;96.60;98428.46;221948;1267;24220;-77
2022/10/02 20:59:12;;;;;;;3.60;1.70;;;;;;;9.10;96.60;98428.52;221954;1267;22547;-78
2022/10/02 21:04:58;;;;;;;4.10;2.10;;;;;;;9.01;96.69;98429.42;221794;1267;22530;-77
2022/10/02 21:10:48;;;;;;;;;;;;;;;;;;;;;
2022/10/02 21:16:18;;;;;;;2.30;1.50;;;;;;;8.79;96.80;98429.37;221681;1267;24378;-77
2022/10/02 21:22:07;;;;;;;2.40;1.80;;;;;;;8.70;97.06;98430.73;221743;1267;25222;-77
2022/10/02 21:28:12;;;;;;;3.80;2.40;;;;;;;8.66;97.93;98451.23;220975;1273;22572;-77
2022/10/02 21:34:29;;;;;;;3.80;2.30;;;;;;;8.72;97.91;98463.78;221108;1273;25193;-78
2022/10/02 21:40:56;;;;;;;7.20;2.80;;;;;;;8.82;98.42;98465.64;221178;1274;25258;-81
2022/10/02 21:46:50;;;;;;;6.00;3.00;;;;;;;8.93;98.82;98459.48;221647;1267;22572;-82
2022/10/02 21:53:02;;;;;;;;;;;;;;;;;;;;;
2022/10/02 21:59:24;;;;;;;4.20;2.30;;;;;;;9.10;98.84;98461.33;222100;1270;22574;-81
2022/10/02 22:06:05;;;;;;;6.00;2.50;;;;;;;9.18;98.97;98469.67;222203;1270;22694;-82
2022/10/02 22:11:58;;;;;;;5.90;3.20;;;;;;;9.23;99.31;98467.58;222057;1270;25491;-81
2022/10/02 22:18:23;;;;;;;3.20;2.20;;;;;;;9.25;99.50;98471.34;222061;1270;22563;-81
2022/10/02 22:25:25;;;;;;;6.80;2.40;;;;;;;9.24;99.42;98482.64;222511;1267;24260;-80
2022/10/02 22:33:08;;;;;;;3.90;2.00;;;;;;;9.23;99.46;98489.98;222199;1267;22554;-81
2022/10/02 22:38:00;;;;;;;5.40;2.40;;;;;;;9.19;99.88;98484.48;222424;1267;22535;-81
2022/10/02 22:44:23;;;;;;;4.50;2.50;;;;;;;9.09;99.68;98482.23;221204;1270;22559;-80
2022/10/02 22:50:55;;;;;;;8.40;3.10;;;;;;;8.94;99.67;98488.76;222215;1270;23677;-80
2022/10/02 22:57:14;;;;;;;;;;;;;;;;;;;;;
2022/10/02 23:03:53;;;;;;;6.20;3.20;;;;;;;8.75;99.99;98490.62;221992;1271;22574;-79
2022/10/02 23:09:40;;;;;;;10.30;3.80;;;;;;;8.68;100.00;98490.90;221883;1273;23457;-79
2022/10/02 23:15:52;;;;;;;7.20;4.00;;;;;;;8.65;100.00;98489.54;221732;1271;22596;-79
2022/10/02 23:29:09;;;;;;;6.20;3.70;;;;;;;8.57;100.00;98494.85;222613;1267;22474;-80
2022/10/02 23:35:51;;;;;;;8.90;3.80;;;;;;;8.56;100.00;98498.17;222797;1267;22534;-80
2022/10/02 23:42:31;;;;;;;;;;;;;;;;;;;;;
2022/10/02 23:49:18;;;;;;;;;;;;;;;;;;;;;
2022/10/02 23:55:48;;;;;;;;;;;;;;;;;;;;;
